createdAt,value
2018-12-09T00:00:18.567Z,987.33
2018-12-09T00:01:18.559Z,987.19
2018-12-09T00:02:18.548Z,987.25
2018-12-09T00:03:18.533Z,987.17
2018-12-09T00:04:18.524Z,987.21
2018-12-09T00:05:18.515Z,987.16
2018-12-09T00:06:18.517Z,987.14
2018-12-09T00:07:18.489Z,987.13
2018-12-09T00:08:18.479Z,987.05
2018-12-09T00:09:18.483Z,986.95
2018-12-09T00:10:18.457Z,986.92
2018-12-09T00:11:18.458Z,986.93
2018-12-09T00:12:18.439Z,986.94
2018-12-09T00:13:18.434Z,986.87
2018-12-09T00:14:18.415Z,986.82
2018-12-09T00:15:18.413Z,986.85
2018-12-09T00:16:18.397Z,986.77
2018-12-09T00:17:18.386Z,986.71
2018-12-09T00:18:18.377Z,986.70
2018-12-09T00:19:18.373Z,986.73
2018-12-09T00:20:18.351Z,986.72
2018-12-09T00:21:18.344Z,986.70
2018-12-09T00:22:18.331Z,986.67
2018-12-09T00:23:18.327Z,986.64
2018-12-09T00:24:18.318Z,986.57
2018-12-09T00:25:18.307Z,986.54
2018-12-09T00:26:18.305Z,986.54
2018-12-09T00:27:18.299Z,986.48
2018-12-09T00:28:18.298Z,986.49
2018-12-09T00:29:18.253Z,986.46
2018-12-09T00:30:18.253Z,986.42
2018-12-09T00:31:18.235Z,986.39
2018-12-09T00:32:18.229Z,986.34
2018-12-09T00:33:18.216Z,986.29
2018-12-09T00:34:18.208Z,986.27
2018-12-09T00:35:18.197Z,986.29
2018-12-09T00:36:18.184Z,986.30
2018-12-09T00:37:18.184Z,986.23
2018-12-09T00:38:18.170Z,986.19
2018-12-09T00:39:18.153Z,986.18
2018-12-09T00:40:18.144Z,986.16
2018-12-09T00:41:18.142Z,986.12
2018-12-09T00:42:19.074Z,986.08
2018-12-09T00:43:18.114Z,986.08
2018-12-09T00:44:18.106Z,986.02
2018-12-09T00:45:18.092Z,986.05
2018-12-09T00:46:18.078Z,986.01
2018-12-09T00:47:18.064Z,986.01
2018-12-09T00:48:18.055Z,986.00
2018-12-09T00:49:18.050Z,985.95
2018-12-09T00:50:18.036Z,985.94
2018-12-09T00:51:18.019Z,985.94
2018-12-09T00:52:18.018Z,985.88
2018-12-09T00:53:18.003Z,985.79
2018-12-09T00:54:17.995Z,985.78
2018-12-09T00:55:17.989Z,985.80
2018-12-09T00:56:17.979Z,985.76
2018-12-09T00:57:17.961Z,985.79
2018-12-09T00:58:17.951Z,985.73
2018-12-09T00:59:17.937Z,985.74
2018-12-09T01:00:17.927Z,985.66
2018-12-09T01:01:17.926Z,985.64
2018-12-09T01:02:17.914Z,985.72
2018-12-09T01:03:17.897Z,985.59
2018-12-09T01:04:17.895Z,985.59
2018-12-09T01:05:17.881Z,985.53
2018-12-09T01:06:17.898Z,985.48
2018-12-09T01:07:17.853Z,985.44
2018-12-09T01:08:17.873Z,985.42
2018-12-09T01:09:17.838Z,985.34
2018-12-09T01:10:17.817Z,985.35
2018-12-09T01:11:17.818Z,985.26
2018-12-09T01:12:17.806Z,985.22
2018-12-09T01:13:17.787Z,985.09
2018-12-09T01:14:17.784Z,985.10
2018-12-09T01:15:17.773Z,985.01
2018-12-09T01:16:17.783Z,984.89
2018-12-09T01:17:17.747Z,984.84
2018-12-09T01:18:17.735Z,984.86
2018-12-09T01:19:17.740Z,984.81
2018-12-09T01:20:17.713Z,984.90
2018-12-09T01:21:17.714Z,984.85
2018-12-09T01:22:17.698Z,984.72
2018-12-09T01:23:17.685Z,984.70
2018-12-09T01:24:17.693Z,984.75
2018-12-09T01:25:17.660Z,984.73
2018-12-09T01:26:17.667Z,984.71
2018-12-09T01:27:17.644Z,984.68
2018-12-09T01:28:17.637Z,984.61
2018-12-09T01:29:17.638Z,984.60
2018-12-09T01:30:17.614Z,984.68
2018-12-09T01:31:17.603Z,984.59
2018-12-09T01:32:17.584Z,984.63
2018-12-09T01:33:17.578Z,984.56
2018-12-09T01:34:17.569Z,984.60
2018-12-09T01:35:17.552Z,984.54
2018-12-09T01:36:17.548Z,984.46
2018-12-09T01:37:17.534Z,984.46
2018-12-09T01:38:17.540Z,984.38
2018-12-09T01:39:17.523Z,984.43
2018-12-09T01:40:17.504Z,984.42
2018-12-09T01:41:17.494Z,984.43
2018-12-09T01:42:17.487Z,984.39
2018-12-09T01:43:17.478Z,984.35
2018-12-09T01:44:17.463Z,984.39
2018-12-09T01:45:17.451Z,984.38
2018-12-09T01:46:17.442Z,984.32
2018-12-09T01:47:17.430Z,984.27
2018-12-09T01:48:17.428Z,984.24
2018-12-09T01:49:17.412Z,984.26
2018-12-09T01:50:17.396Z,984.23
2018-12-09T01:51:17.387Z,984.15
2018-12-09T01:52:17.376Z,984.15
2018-12-09T01:53:17.364Z,984.18
2018-12-09T01:54:17.369Z,984.11
2018-12-09T01:55:17.349Z,984.15
2018-12-09T01:56:17.336Z,984.11
2018-12-09T01:57:17.325Z,984.09
2018-12-09T01:58:17.314Z,984.17
2018-12-09T01:59:17.307Z,984.11
2018-12-09T02:00:17.306Z,984.06
2018-12-09T02:01:17.282Z,984.03
2018-12-09T02:02:17.276Z,983.98
2018-12-09T02:03:17.260Z,983.97
2018-12-09T02:04:17.250Z,983.89
2018-12-09T02:05:17.252Z,983.92
2018-12-09T02:06:17.234Z,983.95
2018-12-09T02:07:17.222Z,983.93
2018-12-09T02:08:17.219Z,983.84
2018-12-09T02:09:17.286Z,983.87
2018-12-09T02:10:17.188Z,983.78
2018-12-09T02:11:17.176Z,983.82
2018-12-09T02:12:17.161Z,983.78
2018-12-09T02:13:17.155Z,983.71
2018-12-09T02:14:17.143Z,983.74
2018-12-09T02:15:17.135Z,983.72
2018-12-09T02:16:17.132Z,983.67
2018-12-09T02:17:17.114Z,983.70
2018-12-09T02:18:17.105Z,983.69
2018-12-09T02:19:17.095Z,983.64
2018-12-09T02:20:17.080Z,983.69
2018-12-09T02:21:17.065Z,983.61
2018-12-09T02:22:17.068Z,983.68
2018-12-09T02:23:17.047Z,983.56
2018-12-09T02:24:17.039Z,983.63
2018-12-09T02:25:17.032Z,983.58
2018-12-09T02:26:17.018Z,983.53
2018-12-09T02:27:17.008Z,983.50
2018-12-09T02:28:16.993Z,983.51
2018-12-09T02:29:17.002Z,983.47
2018-12-09T02:30:16.977Z,983.51
2018-12-09T02:31:16.966Z,983.51
2018-12-09T02:32:16.957Z,983.45
2018-12-09T02:33:16.950Z,983.44
2018-12-09T02:34:16.935Z,983.40
2018-12-09T02:35:16.923Z,983.39
2018-12-09T02:36:16.909Z,983.32
2018-12-09T02:37:16.905Z,983.31
2018-12-09T02:38:16.889Z,983.31
2018-12-09T02:39:16.879Z,983.23
2018-12-09T02:40:16.875Z,983.29
2018-12-09T02:41:16.864Z,983.26
2018-12-09T02:42:16.852Z,983.26
2018-12-09T02:43:16.852Z,983.23
2018-12-09T02:44:16.827Z,983.25
2018-12-09T02:45:16.813Z,983.24
2018-12-09T02:46:16.825Z,983.21
2018-12-09T02:47:16.793Z,983.15
2018-12-09T02:48:16.788Z,983.19
2018-12-09T02:49:16.784Z,983.11
2018-12-09T02:50:16.766Z,983.10
2018-12-09T02:51:16.757Z,983.07
2018-12-09T02:52:16.757Z,983.12
2018-12-09T02:53:16.732Z,983.06
2018-12-09T02:54:22.611Z,983.04
2018-12-09T02:55:17.207Z,983.06
2018-12-09T02:56:16.785Z,982.95
2018-12-09T02:57:16.708Z,982.99
2018-12-09T02:58:16.680Z,982.94
2018-12-09T02:59:16.671Z,982.96
2018-12-09T03:00:16.664Z,982.89
2018-12-09T03:01:18.107Z,982.84
2018-12-09T03:02:17.121Z,982.87
2018-12-09T03:03:16.625Z,982.86
2018-12-09T03:04:16.610Z,982.87
2018-12-09T03:05:17.116Z,982.82
2018-12-09T03:06:17.612Z,982.85
2018-12-09T03:07:17.118Z,982.82
2018-12-09T03:08:18.112Z,982.80
2018-12-09T03:09:16.567Z,982.80
2018-12-09T03:10:16.560Z,982.78
2018-12-09T03:11:17.114Z,982.73
2018-12-09T03:12:16.523Z,982.74
2018-12-09T03:13:16.522Z,982.71
2018-12-09T03:14:16.509Z,982.71
2018-12-09T03:15:16.499Z,982.77
2018-12-09T03:16:18.117Z,982.76
2018-12-09T03:17:17.614Z,982.72
2018-12-09T03:18:17.126Z,982.69
2018-12-09T03:19:16.949Z,982.71
2018-12-09T03:20:16.445Z,982.69
2018-12-09T03:21:16.433Z,982.67
2018-12-09T03:22:16.427Z,982.64
2018-12-09T03:23:16.407Z,982.66
2018-12-09T03:24:16.404Z,982.69
2018-12-09T03:25:16.391Z,982.65
2018-12-09T03:26:16.382Z,982.65
2018-12-09T03:27:16.367Z,982.64
2018-12-09T03:28:16.363Z,982.58
2018-12-09T03:29:16.352Z,982.61
2018-12-09T03:30:16.340Z,982.59
2018-12-09T03:31:16.326Z,982.59
2018-12-09T03:32:16.320Z,982.60
2018-12-09T03:33:16.307Z,982.57
2018-12-09T03:34:16.305Z,982.58
2018-12-09T03:35:16.292Z,982.53
2018-12-09T03:36:16.272Z,982.54
2018-12-09T03:37:16.261Z,982.50
2018-12-09T03:38:16.259Z,982.52
2018-12-09T03:39:16.244Z,982.50
2018-12-09T03:40:16.227Z,982.51
2018-12-09T03:41:16.224Z,982.42
2018-12-09T03:42:16.212Z,982.44
2018-12-09T03:43:16.205Z,982.43
2018-12-09T03:44:16.183Z,982.45
2018-12-09T03:45:16.187Z,982.44
2018-12-09T03:46:16.167Z,982.38
2018-12-09T03:47:16.162Z,982.43
2018-12-09T03:48:16.143Z,982.45
2018-12-09T03:49:16.136Z,982.45
2018-12-09T03:50:16.125Z,982.49
2018-12-09T03:51:16.111Z,982.42
2018-12-09T03:52:16.107Z,982.41
2018-12-09T03:53:16.097Z,982.34
2018-12-09T03:54:16.087Z,982.36
2018-12-09T03:55:16.070Z,982.31
2018-12-09T03:56:16.059Z,982.33
2018-12-09T03:57:16.050Z,982.30
2018-12-09T03:58:16.040Z,982.31
2018-12-09T03:59:16.034Z,982.26
2018-12-09T04:00:16.015Z,982.29
2018-12-09T04:01:16.012Z,982.29
2018-12-09T04:02:16.011Z,982.33
2018-12-09T04:03:15.996Z,982.24
2018-12-09T04:04:15.994Z,982.27
2018-12-09T04:05:15.988Z,982.29
2018-12-09T04:06:15.965Z,982.29
2018-12-09T04:07:15.944Z,982.28
2018-12-09T04:08:15.939Z,982.29
2018-12-09T04:09:15.925Z,982.34
2018-12-09T04:10:15.968Z,982.30
2018-12-09T04:11:15.912Z,982.37
2018-12-09T04:12:15.924Z,982.33
2018-12-09T04:13:15.911Z,982.34
2018-12-09T04:14:15.894Z,982.30
2018-12-09T04:15:15.867Z,982.30
2018-12-09T04:16:15.850Z,982.30
2018-12-09T04:17:15.834Z,982.26
2018-12-09T04:18:15.896Z,982.32
2018-12-09T04:19:15.816Z,982.23
2018-12-09T04:20:15.813Z,982.25
2018-12-09T04:21:15.796Z,982.24
2018-12-09T04:22:15.787Z,982.22
2018-12-09T04:23:15.783Z,982.21
2018-12-09T04:24:15.791Z,982.19
2018-12-09T04:25:15.750Z,982.17
2018-12-09T04:26:15.746Z,982.15
2018-12-09T04:27:15.732Z,982.13
2018-12-09T04:28:15.719Z,982.15
2018-12-09T04:29:15.743Z,982.13
2018-12-09T04:30:15.700Z,982.13
2018-12-09T04:31:15.695Z,982.14
2018-12-09T04:32:15.679Z,982.14
2018-12-09T04:33:15.674Z,982.11
2018-12-09T04:34:15.663Z,982.18
2018-12-09T04:35:15.648Z,982.10
2018-12-09T04:36:15.635Z,982.14
2018-12-09T04:37:15.625Z,982.13
2018-12-09T04:38:15.617Z,982.12
2018-12-09T04:39:15.612Z,982.14
2018-12-09T04:40:15.610Z,982.17
2018-12-09T04:41:15.597Z,982.17
2018-12-09T04:42:15.575Z,982.13
2018-12-09T04:43:15.560Z,982.12
2018-12-09T04:44:15.549Z,982.12
2018-12-09T04:45:15.545Z,982.14
2018-12-09T04:46:15.533Z,982.10
2018-12-09T04:47:15.522Z,982.13
2018-12-09T04:48:15.512Z,982.11
2018-12-09T04:49:15.501Z,982.14
2018-12-09T04:50:15.495Z,982.15
2018-12-09T04:51:15.481Z,982.19
2018-12-09T04:52:15.474Z,982.21
2018-12-09T04:53:15.458Z,982.24
2018-12-09T04:54:15.441Z,982.20
2018-12-09T04:55:15.446Z,982.19
2018-12-09T04:56:15.430Z,982.17
2018-12-09T04:57:15.420Z,982.18
2018-12-09T04:58:15.405Z,982.15
2018-12-09T04:59:15.401Z,982.17
2018-12-09T05:00:15.398Z,982.19
2018-12-09T05:01:15.377Z,982.16
2018-12-09T05:02:15.362Z,982.24
2018-12-09T05:03:15.347Z,982.22
2018-12-09T05:04:15.359Z,982.18
2018-12-09T05:05:15.338Z,982.17
2018-12-09T05:06:15.354Z,982.21
2018-12-09T05:07:15.310Z,982.24
2018-12-09T05:08:15.304Z,982.23
2018-12-09T05:09:15.298Z,982.24
2018-12-09T05:10:15.277Z,982.20
2018-12-09T05:11:15.274Z,982.22
2018-12-09T05:12:15.263Z,982.24
2018-12-09T05:13:15.246Z,982.27
2018-12-09T05:14:15.242Z,982.23
2018-12-09T05:15:15.229Z,982.26
2018-12-09T05:16:15.228Z,982.22
2018-12-09T05:17:15.207Z,982.32
2018-12-09T05:18:15.189Z,982.28
2018-12-09T05:19:15.181Z,982.29
2018-12-09T05:20:15.180Z,982.35
2018-12-09T05:21:15.166Z,982.33
2018-12-09T05:22:15.150Z,982.34
2018-12-09T05:23:15.145Z,982.36
2018-12-09T05:24:15.131Z,982.39
2018-12-09T05:25:15.148Z,982.43
2018-12-09T05:26:15.141Z,982.39
2018-12-09T05:27:15.104Z,982.41
2018-12-09T05:28:15.107Z,982.40
2018-12-09T05:29:15.088Z,982.44
2018-12-09T05:30:15.068Z,982.48
2018-12-09T05:31:15.064Z,982.45
2018-12-09T05:32:15.049Z,982.57
2018-12-09T05:33:15.038Z,982.47
2018-12-09T05:34:15.029Z,982.44
2018-12-09T05:35:15.013Z,982.40
2018-12-09T05:36:14.997Z,982.42
2018-12-09T05:37:14.991Z,982.47
2018-12-09T05:38:14.984Z,982.51
2018-12-09T05:39:14.973Z,982.49
2018-12-09T05:40:14.968Z,982.48
2018-12-09T05:41:14.955Z,982.59
2018-12-09T05:42:14.938Z,982.55
2018-12-09T05:43:14.931Z,982.58
2018-12-09T05:44:14.921Z,982.54
2018-12-09T05:45:15.665Z,982.55
2018-12-09T05:46:14.900Z,982.61
2018-12-09T05:47:14.884Z,982.64
2018-12-09T05:48:14.878Z,982.52
2018-12-09T05:49:14.876Z,982.62
2018-12-09T05:50:14.861Z,982.59
2018-12-09T05:51:14.850Z,982.52
2018-12-09T05:52:14.833Z,982.57
2018-12-09T05:53:14.826Z,982.59
2018-12-09T05:54:14.813Z,982.63
2018-12-09T05:55:14.802Z,982.73
2018-12-09T05:56:14.788Z,982.67
2018-12-09T05:57:14.779Z,982.74
2018-12-09T05:58:14.768Z,982.64
2018-12-09T05:59:14.758Z,982.64
2018-12-09T06:00:14.746Z,982.68
2018-12-09T06:01:14.737Z,982.65
2018-12-09T06:02:14.730Z,982.70
2018-12-09T06:03:14.712Z,982.73
2018-12-09T06:04:14.719Z,982.66
2018-12-09T06:05:14.724Z,982.69
2018-12-09T06:06:14.763Z,982.67
2018-12-09T06:07:14.690Z,982.67
2018-12-09T06:08:14.659Z,982.57
2018-12-09T06:09:14.650Z,982.63
2018-12-09T06:10:14.730Z,982.61
2018-12-09T06:11:14.629Z,982.66
2018-12-09T06:12:14.620Z,982.76
2018-12-09T06:13:14.609Z,982.53
2018-12-09T06:14:14.598Z,982.79
2018-12-09T06:15:14.588Z,982.70
2018-12-09T06:16:14.578Z,982.63
2018-12-09T06:17:14.564Z,982.78
2018-12-09T06:18:14.561Z,982.72
2018-12-09T06:19:14.546Z,982.77
2018-12-09T06:20:14.542Z,982.80
2018-12-09T06:21:14.523Z,982.86
2018-12-09T06:22:14.512Z,982.83
2018-12-09T06:23:14.496Z,982.86
2018-12-09T06:24:14.490Z,982.99
2018-12-09T06:25:14.541Z,982.90
2018-12-09T06:26:14.467Z,983.00
2018-12-09T06:27:14.463Z,982.96
2018-12-09T06:28:14.455Z,983.01
2018-12-09T06:29:14.446Z,983.05
2018-12-09T06:30:14.436Z,983.09
2018-12-09T06:31:14.417Z,983.07
2018-12-09T06:32:14.419Z,983.08
2018-12-09T06:33:14.399Z,983.11
2018-12-09T06:34:14.391Z,983.13
2018-12-09T06:35:14.368Z,983.17
2018-12-09T06:36:14.363Z,983.19
2018-12-09T06:37:14.356Z,983.16
2018-12-09T06:38:14.346Z,983.18
2018-12-09T06:39:14.329Z,983.17
2018-12-09T06:40:14.319Z,983.25
2018-12-09T06:41:14.360Z,983.22
2018-12-09T06:42:14.296Z,983.26
2018-12-09T06:43:14.288Z,983.27
2018-12-09T06:44:14.310Z,983.32
2018-12-09T06:45:14.271Z,983.32
2018-12-09T06:46:14.262Z,983.39
2018-12-09T06:47:14.246Z,983.42
2018-12-09T06:48:14.233Z,983.38
2018-12-09T06:49:14.223Z,983.36
2018-12-09T06:50:14.213Z,983.42
2018-12-09T06:51:14.202Z,983.39
2018-12-09T06:52:14.192Z,983.40
2018-12-09T06:53:14.186Z,983.39
2018-12-09T06:54:14.173Z,983.40
2018-12-09T06:55:14.166Z,983.40
2018-12-09T06:56:14.153Z,983.48
2018-12-09T06:57:14.149Z,983.52
2018-12-09T06:58:14.130Z,983.52
2018-12-09T06:59:14.129Z,983.58
2018-12-09T07:00:14.111Z,983.60
2018-12-09T07:01:14.101Z,983.63
2018-12-09T07:02:14.089Z,983.63
2018-12-09T07:03:14.077Z,983.67
2018-12-09T07:04:14.067Z,983.67
2018-12-09T07:05:14.056Z,983.71
2018-12-09T07:06:14.052Z,983.76
2018-12-09T07:07:14.034Z,983.76
2018-12-09T07:08:14.025Z,983.79
2018-12-09T07:09:14.015Z,983.80
2018-12-09T07:10:14.003Z,983.81
2018-12-09T07:11:14.012Z,983.84
2018-12-09T07:12:13.983Z,983.86
2018-12-09T07:13:13.969Z,983.90
2018-12-09T07:14:13.962Z,983.85
2018-12-09T07:15:13.945Z,983.88
2018-12-09T07:16:13.940Z,983.88
2018-12-09T07:17:13.931Z,983.89
2018-12-09T07:18:13.925Z,983.95
2018-12-09T07:19:13.912Z,983.92
2018-12-09T07:20:13.909Z,983.99
2018-12-09T07:21:13.889Z,983.99
2018-12-09T07:22:13.874Z,984.06
2018-12-09T07:23:13.887Z,984.04
2018-12-09T07:24:13.850Z,984.02
2018-12-09T07:25:13.849Z,984.11
2018-12-09T07:26:13.833Z,984.16
2018-12-09T07:27:13.847Z,984.11
2018-12-09T07:28:13.807Z,984.20
2018-12-09T07:29:13.806Z,984.25
2018-12-09T07:30:13.791Z,984.31
2018-12-09T07:31:13.776Z,984.23
2018-12-09T07:32:13.774Z,984.30
2018-12-09T07:33:13.757Z,984.35
2018-12-09T07:34:13.747Z,984.31
2018-12-09T07:35:13.737Z,984.26
2018-12-09T07:36:13.744Z,984.34
2018-12-09T07:37:13.713Z,984.32
2018-12-09T07:38:13.715Z,984.40
2018-12-09T07:39:13.689Z,984.35
2018-12-09T07:40:13.681Z,984.44
2018-12-09T07:41:13.674Z,984.47
2018-12-09T07:42:13.669Z,984.46
2018-12-09T07:43:13.663Z,984.50
2018-12-09T07:44:13.639Z,984.47
2018-12-09T07:45:13.633Z,984.50
2018-12-09T07:46:15.203Z,984.47
2018-12-09T07:47:13.619Z,984.49
2018-12-09T07:48:13.596Z,984.54
2018-12-09T07:49:13.585Z,984.55
2018-12-09T07:50:13.575Z,984.58
2018-12-09T07:51:13.563Z,984.62
2018-12-09T07:52:13.560Z,984.61
2018-12-09T07:53:13.545Z,984.66
2018-12-09T07:54:13.533Z,984.66
2018-12-09T07:55:13.521Z,984.65
2018-12-09T07:56:13.517Z,984.67
2018-12-09T07:57:13.502Z,984.67
2018-12-09T07:58:13.492Z,984.69
2018-12-09T07:59:13.487Z,984.69
2018-12-09T08:00:13.471Z,984.71
2018-12-09T08:01:13.464Z,984.67
2018-12-09T08:02:13.450Z,984.70
2018-12-09T08:03:13.447Z,984.73
2018-12-09T08:04:13.424Z,984.79
2018-12-09T08:05:13.417Z,984.76
2018-12-09T08:06:13.407Z,984.80
2018-12-09T08:07:13.397Z,984.74
2018-12-09T08:08:13.387Z,984.83
2018-12-09T08:09:13.370Z,984.86
2018-12-09T08:10:13.357Z,984.89
2018-12-09T08:11:13.364Z,984.92
2018-12-09T08:12:13.339Z,984.90
2018-12-09T08:13:13.330Z,984.92
2018-12-09T08:14:13.318Z,984.88
2018-12-09T08:15:13.309Z,984.98
2018-12-09T08:16:13.395Z,984.96
2018-12-09T08:17:13.287Z,985.08
2018-12-09T08:18:13.281Z,985.07
2018-12-09T08:19:13.260Z,985.07
2018-12-09T08:20:13.257Z,985.10
2018-12-09T08:21:13.253Z,985.11
2018-12-09T08:22:14.961Z,985.11
2018-12-09T08:23:13.228Z,985.18
2018-12-09T08:24:13.217Z,985.15
2018-12-09T08:25:13.209Z,985.16
2018-12-09T08:26:13.218Z,985.22
2018-12-09T08:27:13.205Z,985.17
2018-12-09T08:28:13.168Z,985.15
2018-12-09T08:29:13.168Z,985.20
2018-12-09T08:30:13.168Z,985.22
2018-12-09T08:31:13.135Z,985.20
2018-12-09T08:32:13.131Z,985.10
2018-12-09T08:33:13.119Z,985.32
2018-12-09T08:34:13.110Z,985.31
2018-12-09T08:35:13.095Z,985.28
2018-12-09T08:36:13.100Z,985.26
2018-12-09T08:37:13.082Z,985.27
2018-12-09T08:38:13.077Z,985.28
2018-12-09T08:39:13.057Z,985.33
2018-12-09T08:40:13.053Z,985.42
2018-12-09T08:41:13.042Z,985.38
2018-12-09T08:42:13.069Z,985.39
2018-12-09T08:43:13.017Z,985.44
2018-12-09T08:44:13.013Z,985.47
2018-12-09T08:45:12.996Z,985.48
2018-12-09T08:46:12.987Z,985.48
2018-12-09T08:47:12.969Z,985.51
2018-12-09T08:48:12.963Z,985.54
2018-12-09T08:49:12.948Z,985.61
2018-12-09T08:50:12.944Z,985.56
2018-12-09T08:51:12.927Z,985.62
2018-12-09T08:52:12.910Z,985.61
2018-12-09T08:53:12.941Z,985.69
2018-12-09T08:54:12.893Z,985.66
2018-12-09T08:55:12.880Z,985.66
2018-12-09T08:56:12.877Z,985.64
2018-12-09T08:57:12.874Z,985.74
2018-12-09T08:58:12.853Z,985.72
2018-12-09T08:59:12.846Z,985.76
2018-12-09T09:00:12.838Z,985.78
2018-12-09T09:01:12.833Z,985.74
2018-12-09T09:02:12.816Z,985.81
2018-12-09T09:03:12.807Z,985.81
2018-12-09T09:04:12.792Z,985.84
2018-12-09T09:05:12.784Z,985.87
2018-12-09T09:06:12.766Z,985.94
2018-12-09T09:07:12.766Z,985.89
2018-12-09T09:08:12.764Z,985.85
2018-12-09T09:09:12.735Z,985.91
2018-12-09T09:10:12.734Z,985.94
2018-12-09T09:11:12.713Z,985.91
2018-12-09T09:12:12.702Z,986.00
2018-12-09T09:13:12.697Z,985.93
2018-12-09T09:14:12.678Z,986.00
2018-12-09T09:15:12.679Z,986.05
2018-12-09T09:16:12.669Z,986.00
2018-12-09T09:17:12.653Z,986.05
2018-12-09T09:18:12.645Z,986.06
2018-12-09T09:19:12.632Z,986.03
2018-12-09T09:20:12.635Z,986.10
2018-12-09T09:21:12.608Z,986.07
2018-12-09T09:22:12.603Z,986.08
2018-12-09T09:23:12.593Z,986.10
2018-12-09T09:24:12.579Z,986.14
2018-12-09T09:25:12.573Z,986.08
2018-12-09T09:26:12.557Z,986.16
2018-12-09T09:27:12.549Z,986.14
2018-12-09T09:28:12.538Z,986.13
2018-12-09T09:29:12.608Z,986.12
2018-12-09T09:30:12.508Z,986.17
2018-12-09T09:31:12.504Z,986.18
2018-12-09T09:32:12.506Z,986.24
2018-12-09T09:33:12.475Z,986.23
2018-12-09T09:34:12.468Z,986.27
2018-12-09T09:35:12.464Z,986.25
2018-12-09T09:36:12.451Z,986.22
2018-12-09T09:37:12.440Z,986.25
2018-12-09T09:38:12.516Z,986.28
2018-12-09T09:39:12.421Z,986.23
2018-12-09T09:40:12.404Z,986.26
2018-12-09T09:41:12.398Z,986.27
2018-12-09T09:42:12.388Z,986.33
2018-12-09T09:43:13.239Z,986.33
2018-12-09T09:44:12.381Z,986.38
2018-12-09T09:45:12.357Z,986.36
2018-12-09T09:46:12.357Z,986.43
2018-12-09T09:47:12.327Z,986.40
2018-12-09T09:48:12.329Z,986.33
2018-12-09T09:49:12.308Z,986.43
2018-12-09T09:50:12.334Z,986.38
2018-12-09T09:51:12.292Z,986.40
2018-12-09T09:52:12.287Z,986.44
2018-12-09T09:53:12.268Z,986.44
2018-12-09T09:54:12.264Z,986.46
2018-12-09T09:55:12.245Z,986.50
2018-12-09T09:56:12.250Z,986.54
2018-12-09T09:57:12.229Z,986.48
2018-12-09T09:58:12.223Z,986.59
2018-12-09T09:59:12.203Z,986.55
2018-12-09T10:00:12.201Z,986.58
2018-12-09T10:01:12.207Z,986.57
2018-12-09T10:02:12.170Z,986.54
2018-12-09T10:03:12.157Z,986.57
2018-12-09T10:04:12.157Z,986.56
2018-12-09T10:05:12.136Z,986.57
2018-12-09T10:06:12.131Z,986.63
2018-12-09T10:07:12.113Z,986.56
2018-12-09T10:08:12.112Z,986.59
2018-12-09T10:09:12.099Z,986.58
2018-12-09T10:10:12.082Z,986.61
2018-12-09T10:11:12.074Z,986.66
2018-12-09T10:12:12.067Z,986.64
2018-12-09T10:13:12.055Z,986.65
2018-12-09T10:14:12.093Z,986.68
2018-12-09T10:15:12.036Z,986.65
2018-12-09T10:16:12.020Z,986.69
2018-12-09T10:17:12.009Z,986.68
2018-12-09T10:18:12.011Z,986.72
2018-12-09T10:19:11.991Z,986.64
2018-12-09T10:20:11.979Z,986.65
2018-12-09T10:21:11.984Z,986.68
2018-12-09T10:22:11.961Z,986.66
2018-12-09T10:23:11.964Z,986.65
2018-12-09T10:24:11.956Z,986.70
2018-12-09T10:25:11.993Z,986.63
2018-12-09T10:26:11.917Z,986.67
2018-12-09T10:27:11.904Z,986.72
2018-12-09T10:28:11.893Z,986.76
2018-12-09T10:29:11.890Z,986.64
2018-12-09T10:30:11.880Z,986.71
2018-12-09T10:31:11.890Z,986.67
2018-12-09T10:32:11.854Z,986.65
2018-12-09T10:33:11.841Z,986.64
2018-12-09T10:34:11.854Z,986.67
2018-12-09T10:35:11.835Z,986.62
2018-12-09T10:36:11.816Z,986.65
2018-12-09T10:37:11.895Z,986.70
2018-12-09T10:38:11.785Z,986.70
2018-12-09T10:39:11.794Z,986.71
2018-12-09T10:40:11.774Z,986.68
2018-12-09T10:41:11.760Z,986.67
2018-12-09T10:42:11.767Z,986.69
2018-12-09T10:43:11.731Z,986.66
2018-12-09T10:44:11.724Z,986.67
2018-12-09T10:45:11.716Z,986.73
2018-12-09T10:46:11.700Z,986.72
2018-12-09T10:47:11.691Z,986.74
2018-12-09T10:48:11.682Z,986.74
2018-12-09T10:49:11.673Z,986.76
2018-12-09T10:50:11.664Z,986.78
2018-12-09T10:51:11.646Z,986.79
2018-12-09T10:52:11.640Z,986.79
2018-12-09T10:53:11.623Z,986.83
2018-12-09T10:54:11.623Z,986.81
2018-12-09T10:55:11.608Z,986.81
2018-12-09T10:56:11.603Z,986.78
2018-12-09T10:57:11.591Z,986.80
2018-12-09T10:58:11.578Z,986.82
2018-12-09T10:59:11.569Z,986.81
2018-12-09T11:00:11.554Z,986.74
2018-12-09T11:01:11.541Z,986.79
2018-12-09T11:02:11.540Z,986.84
2018-12-09T11:03:11.531Z,986.89
2018-12-09T11:04:11.511Z,986.88
2018-12-09T11:05:11.531Z,986.89
2018-12-09T11:06:11.503Z,986.85
2018-12-09T11:07:11.565Z,986.85
2018-12-09T11:08:11.489Z,986.84
2018-12-09T11:09:11.467Z,986.83
2018-12-09T11:10:11.471Z,986.88
2018-12-09T11:11:11.455Z,986.90
2018-12-09T11:12:11.419Z,986.90
2018-12-09T11:13:11.430Z,986.94
2018-12-09T11:14:11.406Z,986.92
2018-12-09T11:15:11.390Z,986.89
2018-12-09T11:16:11.396Z,986.93
2018-12-09T11:17:11.372Z,986.92
2018-12-09T11:18:11.360Z,986.95
2018-12-09T11:19:11.375Z,986.96
2018-12-09T11:20:11.343Z,986.96
2018-12-09T11:21:11.329Z,986.93
2018-12-09T11:22:11.318Z,986.99
2018-12-09T11:23:11.309Z,986.90
2018-12-09T11:24:11.300Z,986.97
2018-12-09T11:25:11.306Z,986.96
2018-12-09T11:26:11.280Z,986.98
2018-12-09T11:27:11.274Z,986.97
2018-12-09T11:28:11.262Z,987.00
2018-12-09T11:29:11.247Z,987.02
2018-12-09T11:30:11.237Z,987.04
2018-12-09T11:31:11.228Z,986.98
2018-12-09T11:32:11.236Z,986.97
2018-12-09T11:33:11.201Z,986.93
2018-12-09T11:34:11.197Z,986.95
2018-12-09T11:35:11.174Z,986.87
2018-12-09T11:36:11.181Z,986.91
2018-12-09T11:37:11.153Z,986.86
2018-12-09T11:38:11.182Z,986.93
2018-12-09T11:39:11.136Z,986.85
2018-12-09T11:40:11.126Z,986.89
2018-12-09T11:41:11.122Z,986.90
2018-12-09T11:42:11.109Z,986.98
2018-12-09T11:43:11.096Z,986.94
2018-12-09T11:44:11.101Z,986.89
2018-12-09T11:45:11.106Z,986.90
2018-12-09T11:46:11.074Z,986.87
2018-12-09T11:47:11.073Z,986.89
2018-12-09T11:48:11.173Z,986.86
2018-12-09T11:49:11.074Z,986.86
2018-12-09T11:50:11.026Z,986.89
2018-12-09T11:51:11.009Z,986.90
2018-12-09T11:52:11.005Z,986.92
2018-12-09T11:53:10.988Z,986.94
2018-12-09T11:54:10.977Z,986.89
2018-12-09T11:55:10.975Z,986.93
2018-12-09T11:56:10.948Z,986.96
2018-12-09T11:57:10.943Z,986.94
2018-12-09T11:58:10.932Z,986.96
2018-12-09T11:59:11.927Z,987.00
2018-12-09T12:00:10.912Z,987.01
2018-12-09T12:01:10.918Z,986.99
2018-12-09T12:02:10.894Z,986.94
2018-12-09T12:03:10.881Z,986.98
2018-12-09T12:04:10.869Z,986.90
2018-12-09T12:05:10.862Z,986.96
2018-12-09T12:06:10.857Z,986.93
2018-12-09T12:07:10.858Z,986.94
2018-12-09T12:08:10.833Z,986.97
2018-12-09T12:09:10.833Z,986.96
2018-12-09T12:10:10.810Z,986.97
2018-12-09T12:11:10.804Z,986.95
2018-12-09T12:12:10.785Z,986.98
2018-12-09T12:13:10.785Z,987.05
2018-12-09T12:14:10.768Z,987.05
2018-12-09T12:15:10.754Z,987.04
2018-12-09T12:16:10.744Z,986.99
2018-12-09T12:17:10.757Z,987.03
2018-12-09T12:18:10.722Z,986.99
2018-12-09T12:19:10.709Z,987.00
2018-12-09T12:20:10.712Z,987.03
2018-12-09T12:21:10.693Z,987.02
2018-12-09T12:22:10.677Z,987.06
2018-12-09T12:23:10.671Z,987.04
2018-12-09T12:24:10.665Z,987.07
2018-12-09T12:25:10.647Z,987.07
2018-12-09T12:26:10.637Z,987.05
2018-12-09T12:27:10.628Z,987.13
2018-12-09T12:28:10.610Z,987.16